createdAt,value
2019-04-07T00:01:53.713Z,45.07
2019-04-07T00:04:23.963Z,46.37
2019-04-07T00:06:54.556Z,45.77
2019-04-07T00:09:24.778Z,42.90
2019-04-07T00:11:55.222Z,42.27
2019-04-07T00:14:26.032Z,45.27
2019-04-07T00:16:56.888Z,44.53
2019-04-07T00:19:28.298Z,46.67
2019-04-07T00:21:59.324Z,47.10
2019-04-07T00:24:29.959Z,45.93
2019-04-07T00:27:00.613Z,43.93
2019-04-07T00:29:31.512Z,43.60
2019-04-07T00:32:02.477Z,44.43
2019-04-07T00:34:32.716Z,49.37
2019-04-07T00:37:03.133Z,43.83
2019-04-07T00:39:33.530Z,47.43
2019-04-07T00:42:03.975Z,48.67
2019-04-07T00:44:34.426Z,47.17
2019-04-07T00:47:05.245Z,47.07
2019-04-07T00:49:35.752Z,47.13
2019-04-07T00:52:07.109Z,45.60
2019-04-07T00:54:37.883Z,48.13
2019-04-07T00:57:08.257Z,48.85
2019-04-07T00:59:38.632Z,46.43
2019-04-07T01:02:09.070Z,47.80
2019-04-07T01:04:39.792Z,51.67
2019-04-07T01:07:10.263Z,51.47
2019-04-07T01:09:40.489Z,48.17
2019-04-07T01:12:10.758Z,47.50
2019-04-07T01:14:41.666Z,47.03
2019-04-07T01:17:12.594Z,50.90
2019-04-07T01:19:44.265Z,48.93
2019-04-07T01:22:15.414Z,51.67
2019-04-07T01:24:46.132Z,51.20
2019-04-07T01:27:16.466Z,49.67
2019-04-07T01:29:47.528Z,50.47
2019-04-07T01:32:21.258Z,50.63
2019-04-07T01:34:51.591Z,50.33
2019-04-07T01:37:22.174Z,51.07
2019-04-07T01:39:52.670Z,51.70
2019-04-07T01:42:41.888Z,51.87
2019-04-07T01:45:30.267Z,50.60
2019-04-07T01:48:29.287Z,50.40
2019-04-07T01:51:32.179Z,47.53
2019-04-07T01:54:20.781Z,53.00
2019-04-07T01:57:13.464Z,48.17
2019-04-07T02:00:20.714Z,47.60
2019-04-07T02:03:10.103Z,51.13
2019-04-07T02:06:08.073Z,50.07
2019-04-07T02:08:51.791Z,47.00
2019-04-07T02:11:50.472Z,49.87
2019-04-07T02:14:42.796Z,49.07
2019-04-07T02:17:18.357Z,48.13
2019-04-07T02:20:07.903Z,50.93
2019-04-07T02:22:57.383Z,50.93
2019-04-07T02:25:59.331Z,49.37
2019-04-07T02:28:48.583Z,48.60
2019-04-07T02:31:27.445Z,48.90
2019-04-07T02:34:12.294Z,47.30
2019-04-07T02:37:00.324Z,49.03
2019-04-07T02:39:48.889Z,48.73
2019-04-07T02:42:44.581Z,48.30
2019-04-07T02:45:36.752Z,46.80
2019-04-07T02:48:41.505Z,47.13
2019-04-07T02:51:43.770Z,52.03
2019-04-07T02:54:48.260Z,49.23
2019-04-07T02:57:44.543Z,49.07
2019-04-07T03:00:24.654Z,53.87
2019-04-07T03:03:22.941Z,50.47
2019-04-07T03:06:21.002Z,48.93
2019-04-07T03:09:16.861Z,47.83
2019-04-07T03:11:59.589Z,50.33
2019-04-07T03:14:35.848Z,48.97
2019-04-07T03:17:25.655Z,50.13
2019-04-07T03:20:15.368Z,44.73
2019-04-07T03:23:14.655Z,46.53
2019-04-07T03:26:02.943Z,48.83
2019-04-07T03:28:58.298Z,49.70
2019-04-07T03:31:51.624Z,47.00
2019-04-07T03:34:40.055Z,48.77
2019-04-07T03:37:36.176Z,46.37
2019-04-07T03:40:16.443Z,48.17
2019-04-07T03:43:15.398Z,49.83
2019-04-07T03:46:00.700Z,49.80
2019-04-07T03:48:38.147Z,50.23
2019-04-07T03:51:30.307Z,52.33
2019-04-07T03:54:12.306Z,49.57
2019-04-07T03:57:01.599Z,47.07
2019-04-07T04:00:06.056Z,47.83
2019-04-07T04:02:55.292Z,48.80
2019-04-07T04:05:43.481Z,46.27
2019-04-07T04:08:32.544Z,43.10
2019-04-07T04:11:09.605Z,47.60
2019-04-07T04:13:47.816Z,45.87
2019-04-07T04:16:22.097Z,47.77
2019-04-07T04:18:52.589Z,45.90
2019-04-07T04:21:24.209Z,48.20
2019-04-07T04:23:55.009Z,44.53
2019-04-07T04:26:25.507Z,47.97
2019-04-07T04:28:56.581Z,47.00
2019-04-07T04:31:27.372Z,48.83
2019-04-07T04:33:58.046Z,45.83
2019-04-07T04:36:29.417Z,48.00
2019-04-07T04:39:00.548Z,48.97
2019-04-07T04:41:30.910Z,46.90
2019-04-07T04:44:02.170Z,47.53
2019-04-07T04:46:32.734Z,44.07
2019-04-07T04:49:04.190Z,48.77
2019-04-07T04:51:39.108Z,47.57
2019-04-07T04:54:07.301Z,45.40
2019-04-07T04:56:37.953Z,49.40
2019-04-07T04:59:08.191Z,46.00
2019-04-07T05:01:39.726Z,42.90
2019-04-07T05:04:10.032Z,44.77
2019-04-07T05:06:41.330Z,47.33
2019-04-07T05:09:12.291Z,49.67
2019-04-07T05:11:42.889Z,47.20
2019-04-07T05:14:13.128Z,49.53
2019-04-07T05:16:43.598Z,47.97
2019-04-07T05:19:14.302Z,47.17
2019-04-07T05:21:44.578Z,46.80
2019-04-07T05:24:15.731Z,48.17
2019-04-07T05:26:46.505Z,48.73
2019-04-07T05:29:17.045Z,47.87
2019-04-07T05:31:47.500Z,46.03
2019-04-07T05:34:20.561Z,45.00
2019-04-07T05:36:50.052Z,43.57
2019-04-07T05:39:20.775Z,41.40
2019-04-07T05:41:51.097Z,46.43
2019-04-07T05:44:21.747Z,45.03
2019-04-07T05:46:52.745Z,51.13
2019-04-07T05:49:24.253Z,46.87
2019-04-07T05:51:54.665Z,45.17
2019-04-07T05:54:24.966Z,44.50
2019-04-07T05:56:58.612Z,42.67
2019-04-07T05:59:27.622Z,41.20
2019-04-07T06:02:01.329Z,42.97
2019-04-07T06:04:30.361Z,48.37
2019-04-07T06:07:00.925Z,45.97
2019-04-07T06:09:33.667Z,41.60
2019-04-07T06:12:05.922Z,43.83
2019-04-07T06:14:34.820Z,45.40
2019-04-07T06:17:05.097Z,46.90
2019-04-07T06:19:40.558Z,47.53
2019-04-07T06:22:08.552Z,47.43
2019-04-07T06:24:39.448Z,47.03
2019-04-07T06:27:09.818Z,45.67
2019-04-07T06:29:39.963Z,47.73
2019-04-07T06:32:11.220Z,47.63
2019-04-07T06:34:43.567Z,48.53
2019-04-07T06:37:14.475Z,50.77
2019-04-07T06:39:47.027Z,48.03
2019-04-07T06:42:17.585Z,52.47
2019-04-07T06:44:50.129Z,53.53
2019-04-07T06:47:39.735Z,54.83
2019-04-07T06:50:20.567Z,55.17
2019-04-07T06:53:04.420Z,52.30
2019-04-07T06:56:01.252Z,50.00
2019-04-07T06:58:56.833Z,53.67
2019-04-07T07:01:49.317Z,51.97
2019-04-07T07:04:57.214Z,51.00
2019-04-07T07:07:45.816Z,55.80
2019-04-07T07:10:47.538Z,54.43
2019-04-07T07:13:34.768Z,56.93
2019-04-07T07:16:42.383Z,55.47
2019-04-07T07:19:29.590Z,56.20
2019-04-07T07:22:16.135Z,58.73
2019-04-07T07:24:47.138Z,58.77
2019-04-07T07:27:17.654Z,58.40
2019-04-07T07:29:51.663Z,59.30
2019-04-07T07:32:20.557Z,58.90
2019-04-07T07:34:50.870Z,60.60
2019-04-07T07:37:22.969Z,62.03
2019-04-07T07:39:53.361Z,60.57
2019-04-07T07:42:24.442Z,62.83
2019-04-07T07:44:54.840Z,67.30
2019-04-07T07:47:26.311Z,67.77
2019-04-07T07:49:56.571Z,69.47
2019-04-07T07:52:27.146Z,69.27
2019-04-07T07:54:59.777Z,65.30
2019-04-07T07:57:29.352Z,66.40
2019-04-07T08:00:00.431Z,65.13
2019-04-07T08:02:31.914Z,68.53
2019-04-07T08:05:03.106Z,68.80
2019-04-07T08:07:33.609Z,67.47
2019-04-07T08:10:04.851Z,68.73
2019-04-07T08:12:35.846Z,68.40
2019-04-07T08:15:07.059Z,65.93
2019-04-07T08:17:37.667Z,68.57
2019-04-07T08:20:08.291Z,71.63
2019-04-07T08:22:42.386Z,68.80
2019-04-07T08:25:11.041Z,70.33
2019-04-07T08:27:41.953Z,71.63
2019-04-07T08:30:13.771Z,70.03
2019-04-07T08:32:44.275Z,72.27
2019-04-07T08:35:15.370Z,70.63
2019-04-07T08:37:47.908Z,73.53
2019-04-07T08:40:18.798Z,70.47
2019-04-07T08:42:50.172Z,72.67
2019-04-07T08:45:23.006Z,74.33
2019-04-07T08:47:53.725Z,70.80
2019-04-07T08:50:27.733Z,75.47
2019-04-07T08:52:56.683Z,74.33
2019-04-07T08:55:28.239Z,71.47
2019-04-07T08:58:02.223Z,70.63
2019-04-07T09:00:31.597Z,71.73
2019-04-07T09:03:07.764Z,72.30
2019-04-07T09:05:34.101Z,72.43
2019-04-07T09:08:06.054Z,70.90
2019-04-07T09:10:42.975Z,68.43
2019-04-07T09:13:13.779Z,69.20
2019-04-07T09:15:53.485Z,68.73
2019-04-07T09:18:32.071Z,69.43
2019-04-07T09:21:35.519Z,69.00
2019-04-07T09:24:17.696Z,64.73
2019-04-07T09:27:17.174Z,68.63
2019-04-07T09:30:10.446Z,68.73
2019-04-07T09:33:09.634Z,69.43
2019-04-07T09:35:59.403Z,66.63
2019-04-07T09:38:50.247Z,64.60
2019-04-07T09:41:45.006Z,66.67
2019-04-07T09:44:37.323Z,67.53
2019-04-07T09:47:37.980Z,65.03
2019-04-07T09:50:28.547Z,63.23
2019-04-07T09:53:33.960Z,65.67
2019-04-07T09:56:16.213Z,64.13
2019-04-07T09:59:04.320Z,64.07
2019-04-07T10:01:52.648Z,64.53
2019-04-07T10:04:42.459Z,65.63
2019-04-07T10:07:29.505Z,63.30
2019-04-07T10:10:31.289Z,63.67
2019-04-07T10:13:21.567Z,59.87
2019-04-07T10:16:23.172Z,63.60
2019-04-07T10:19:15.375Z,61.17
2019-04-07T10:22:03.624Z,62.73
2019-04-07T10:24:51.766Z,63.47
2019-04-07T10:27:41.527Z,62.60
2019-04-07T10:30:27.014Z,65.40
2019-04-07T10:33:14.829Z,67.50
2019-04-07T10:36:13.695Z,65.93
2019-04-07T10:39:06.176Z,64.23
2019-04-07T10:41:53.293Z,66.87
2019-04-07T10:44:58.328Z,65.13
2019-04-07T10:48:02.830Z,64.47
2019-04-07T10:50:51.979Z,65.37
2019-04-07T10:53:31.301Z,59.70
2019-04-07T10:56:24.284Z,58.83
2019-04-07T10:59:12.665Z,59.80
2019-04-07T11:02:14.493Z,59.60
2019-04-07T11:05:02.957Z,58.57
2019-04-07T11:08:10.574Z,58.40
2019-04-07T11:10:58.780Z,58.67
2019-04-07T11:13:42.963Z,58.40
2019-04-07T11:16:31.312Z,56.57
2019-04-07T11:19:08.923Z,57.80
2019-04-07T11:21:46.687Z,56.50
2019-04-07T11:24:35.138Z,59.03
2019-04-07T11:27:22.915Z,55.43
2019-04-07T11:30:18.135Z,57.80
2019-04-07T11:32:56.532Z,57.27
2019-04-07T11:35:49.068Z,57.20
2019-04-07T11:38:28.531Z,56.53
2019-04-07T11:41:16.987Z,58.00
2019-04-07T11:43:54.642Z,59.33
2019-04-07T11:46:46.896Z,59.70
2019-04-07T11:49:42.605Z,58.60
2019-04-07T11:52:37.901Z,57.47
2019-04-07T11:55:31.337Z,58.27
2019-04-07T11:58:31.459Z,59.83
2019-04-07T12:01:24.090Z,61.40
2019-04-07T12:04:16.054Z,59.67
2019-04-07T12:07:11.175Z,59.53
2019-04-07T12:10:00.818Z,58.63
2019-04-07T12:12:56.031Z,62.17
2019-04-07T12:15:56.848Z,57.37
2019-04-07T12:18:55.623Z,60.33
2019-04-07T12:21:32.811Z,59.70
2019-04-07T12:24:25.917Z,58.57
2019-04-07T12:27:13.653Z,58.80
2019-04-07T12:29:55.949Z,58.23
2019-04-07T12:32:34.236Z,58.63
2019-04-07T12:35:19.522Z,57.33
2019-04-07T12:38:16.554Z,56.90
2019-04-07T12:41:14.363Z,58.00
2019-04-07T12:43:56.206Z,52.60
2019-04-07T12:46:51.412Z,59.23
2019-04-07T12:49:53.181Z,60.37
2019-04-07T12:53:00.515Z,56.93
2019-04-07T12:56:03.702Z,60.03
2019-04-07T12:59:05.077Z,58.90
2019-04-07T13:01:43.848Z,60.20
2019-04-07T13:04:35.333Z,59.47
2019-04-07T13:07:40.318Z,58.47
2019-04-07T13:10:23.696Z,60.93
2019-04-07T13:13:18.757Z,56.83
2019-04-07T13:16:21.207Z,56.87
2019-04-07T13:19:10.317Z,58.67
2019-04-07T13:22:02.951Z,58.53
2019-04-07T13:25:07.894Z,57.53
2019-04-07T13:27:52.075Z,57.13
2019-04-07T13:30:41.935Z,57.13
2019-04-07T13:33:34.886Z,55.43
2019-04-07T13:36:23.492Z,61.17
2019-04-07T13:39:22.254Z,64.03
2019-04-07T13:42:11.463Z,61.63
2019-04-07T13:45:02.507Z,62.27
2019-04-07T13:47:48.808Z,58.80
2019-04-07T13:50:44.904Z,59.97
2019-04-07T13:53:50.083Z,60.43
2019-04-07T13:56:47.981Z,60.47
2019-04-07T13:59:28.402Z,61.67
2019-04-07T14:02:05.326Z,62.17
2019-04-07T14:05:07.588Z,59.90
2019-04-07T14:07:55.223Z,62.30
2019-04-07T14:10:34.665Z,62.97
2019-04-07T14:13:25.659Z,63.73
2019-04-07T14:16:14.334Z,63.30
2019-04-07T14:18:54.326Z,63.23
2019-04-07T14:21:42.899Z,65.27
2019-04-07T14:24:35.113Z,65.07
2019-04-07T14:27:20.832Z,62.33
2019-04-07T14:29:58.218Z,61.83
2019-04-07T14:32:34.795Z,63.83
2019-04-07T14:35:24.223Z,67.43
2019-04-07T14:38:20.055Z,68.03
2019-04-07T14:41:13.952Z,66.10
2019-04-07T14:44:02.034Z,66.07
2019-04-07T14:46:41.357Z,67.47
2019-04-07T14:49:24.653Z,67.90
2019-04-07T14:52:17.699Z,64.73
2019-04-07T14:55:06.450Z,66.00
2019-04-07T14:58:06.500Z,67.83
2019-04-07T15:01:04.843Z,68.93
2019-04-07T15:03:33.881Z,67.97
2019-04-07T15:06:04.341Z,66.87
2019-04-07T15:09:07.802Z,67.50
2019-04-07T15:11:41.167Z,69.60
2019-04-07T15:14:12.779Z,66.53
2019-04-07T15:16:44.763Z,69.73
2019-04-07T15:19:15.850Z,71.87
2019-04-07T15:21:48.837Z,71.03
2019-04-07T15:24:19.894Z,71.83
2019-04-07T15:26:50.290Z,71.70
2019-04-07T15:29:22.111Z,70.73
2019-04-07T15:31:53.159Z,70.33
2019-04-07T15:34:24.166Z,70.40
2019-04-07T15:36:55.650Z,67.27
2019-04-07T15:39:29.605Z,69.83
2019-04-07T15:41:57.986Z,69.73
2019-04-07T15:44:29.100Z,67.57
2019-04-07T15:46:59.570Z,64.80
2019-04-07T15:49:29.838Z,66.20
2019-04-07T15:52:01.249Z,70.93
2019-04-07T15:54:32.141Z,67.83
2019-04-07T15:57:02.545Z,67.63
2019-04-07T15:59:33.058Z,71.77
2019-04-07T16:02:04.398Z,71.87
2019-04-07T16:04:35.127Z,71.87
2019-04-07T16:07:05.357Z,68.70
2019-04-07T16:09:45.290Z,67.80
2019-04-07T16:12:08.212Z,68.80
2019-04-07T16:14:40.168Z,70.77
2019-04-07T16:17:11.254Z,71.80
2019-04-07T16:19:45.075Z,71.80
2019-04-07T16:22:14.690Z,71.97
2019-04-07T16:24:46.329Z,68.60
2019-04-07T16:27:17.263Z,71.50
2019-04-07T16:29:47.924Z,68.90
2019-04-07T16:32:18.315Z,73.27
2019-04-07T16:34:49.732Z,68.70
2019-04-07T16:37:20.381Z,69.17
2019-04-07T16:39:51.314Z,71.27
2019-04-07T16:42:21.725Z,73.23
2019-04-07T16:44:52.648Z,71.93
2019-04-07T16:47:25.861Z,70.03
2019-04-07T16:49:54.867Z,70.90
2019-04-07T16:52:25.511Z,76.47
2019-04-07T16:54:56.043Z,74.30
2019-04-07T16:57:30.167Z,75.27
2019-04-07T16:59:58.385Z,73.83
2019-04-07T17:02:29.503Z,83.03
2019-04-07T17:05:01.535Z,78.43
2019-04-07T17:07:32.871Z,80.97
2019-04-07T17:10:05.009Z,80.67
2019-04-07T17:12:35.624Z,83.03
2019-04-07T17:15:07.593Z,87.27
2019-04-07T17:17:38.849Z,92.87
2019-04-07T17:20:09.951Z,94.07
2019-04-07T17:22:40.389Z,110.60
2019-04-07T17:25:12.182Z,115.93
2019-04-07T17:27:42.780Z,110.87
2019-04-07T17:30:17.118Z,109.87
2019-04-07T17:32:49.741Z,111.70
2019-04-07T17:35:21.282Z,113.47
2019-04-07T17:37:52.264Z,117.90
2019-04-07T17:40:26.814Z,114.93
2019-04-07T17:43:08.386Z,117.70
2019-04-07T17:46:02.573Z,117.57
2019-04-07T17:48:55.306Z,105.23
2019-04-07T17:51:37.988Z,113.93
2019-04-07T17:54:43.221Z,114.80
2019-04-07T17:57:35.925Z,108.60
2019-04-07T18:00:41.393Z,106.83
2019-04-07T18:03:44.176Z,107.47
2019-04-07T18:06:45.282Z,105.37
2019-04-07T18:09:34.546Z,105.43
2019-04-07T18:12:14.583Z,105.97
2019-04-07T18:15:15.081Z,105.87
2019-04-07T18:18:04.003Z,107.40
2019-04-07T18:20:49.728Z,102.90
2019-04-07T18:23:39.823Z,99.57
2019-04-07T18:26:29.732Z,105.80
2019-04-07T18:29:10.172Z,102.73
2019-04-07T18:31:49.118Z,101.20
2019-04-07T18:34:34.887Z,101.63
2019-04-07T18:37:26.020Z,100.83
2019-04-07T18:40:26.302Z,100.20
2019-04-07T18:43:18.031Z,94.63
2019-04-07T18:46:07.196Z,94.53
2019-04-07T18:49:04.871Z,105.33
2019-04-07T18:51:56.923Z,102.83
2019-04-07T18:54:46.489Z,98.73
2019-04-07T18:57:31.655Z,90.03
2019-04-07T19:00:30.175Z,92.47
2019-04-07T19:03:09.632Z,96.10
2019-04-07T19:05:46.693Z,96.13
2019-04-07T19:08:34.959Z,98.60
2019-04-07T19:11:24.357Z,99.25
2019-04-07T19:14:25.977Z,96.00
2019-04-07T19:16:54.589Z,94.83
2019-04-07T19:19:44.073Z,98.10
2019-04-07T19:22:40.597Z,99.27
2019-04-07T19:25:35.676Z,99.93
2019-04-07T19:28:34.043Z,102.37
2019-04-07T19:31:20.271Z,94.60
2019-04-07T19:34:12.963Z,96.93
2019-04-07T19:37:08.841Z,100.93
2019-04-07T19:40:02.710Z,99.33
2019-04-07T19:42:56.411Z,102.30
2019-04-07T19:45:35.053Z,101.20
2019-04-07T19:48:13.456Z,102.37
2019-04-07T19:51:03.168Z,98.00
2019-04-07T19:53:53.599Z,99.93
2019-04-07T19:56:52.776Z,102.27
2019-04-07T19:59:42.976Z,100.67
2019-04-07T20:02:38.871Z,97.50
2019-04-07T20:05:38.738Z,97.23
2019-04-07T20:08:25.487Z,99.13
2019-04-07T20:11:32.528Z,101.77
2019-04-07T20:14:27.045Z,99.03
2019-04-07T20:17:19.713Z,96.17
2019-04-07T20:20:23.723Z,97.00
2019-04-07T20:23:18.191Z,95.27
2019-04-07T20:26:07.988Z,99.87
2019-04-07T20:28:56.985Z,98.20
2019-04-07T20:31:37.501Z,99.77
2019-04-07T20:34:40.104Z,94.60
2019-04-07T20:37:13.730Z,89.60
2019-04-07T20:40:03.516Z,91.03
2019-04-07T20:42:41.548Z,97.20
2019-04-07T20:45:24.001Z,98.67
2019-04-07T20:48:12.253Z,99.63
2019-04-07T20:51:00.382Z,99.10
2019-04-07T20:53:49.991Z,97.80
2019-04-07T20:56:44.636Z,93.93
2019-04-07T20:59:33.333Z,91.07
2019-04-07T21:02:23.390Z,90.57
2019-04-07T21:05:12.368Z,91.40
2019-04-07T21:08:01.106Z,96.70
2019-04-07T21:10:46.883Z,93.17
2019-04-07T21:13:27.362Z,98.07
2019-04-07T21:16:08.191Z,94.27
2019-04-07T21:19:04.178Z,90.27
2019-04-07T21:21:43.888Z,88.03
2019-04-07T21:24:32.352Z,88.50
2019-04-07T21:27:33.908Z,98.03
2019-04-07T21:30:08.664Z,88.83
2019-04-07T21:33:00.738Z,96.73
2019-04-07T21:35:51.382Z,93.97
2019-04-07T21:38:47.486Z,89.53
2019-04-07T21:41:33.244Z,89.43
2019-04-07T21:44:34.643Z,85.17
2019-04-07T21:47:29.834Z,84.67
2019-04-07T21:50:09.708Z,93.83
2019-04-07T21:52:59.017Z,83.87
2019-04-07T21:55:47.681Z,84.80
2019-04-07T21:58:39.921Z,84.43
2019-04-07T22:01:37.781Z,90.83
2019-04-07T22:04:30.165Z,88.37
2019-04-07T22:07:22.148Z,82.03
2019-04-07T22:09:55.326Z,75.03
2019-04-07T22:12:28.670Z,78.47
2019-04-07T22:14:57.454Z,78.63
2019-04-07T22:17:27.700Z,81.43
2019-04-07T22:19:58.528Z,84.03
2019-04-07T22:22:29.203Z,84.20
2019-04-07T22:25:01.213Z,80.33
2019-04-07T22:27:32.567Z,84.27
2019-04-07T22:30:06.384Z,77.67
2019-04-07T22:32:36.931Z,82.33
2019-04-07T22:35:08.409Z,83.00
2019-04-07T22:37:38.661Z,86.60
2019-04-07T22:40:14.970Z,83.83
2019-04-07T22:42:45.985Z,83.47
2019-04-07T22:45:17.354Z,80.00
2019-04-07T22:47:51.410Z,83.77
2019-04-07T22:50:20.143Z,80.33
2019-04-07T22:52:52.144Z,77.20
2019-04-07T22:55:22.825Z,78.27
2019-04-07T22:57:53.733Z,75.83
2019-04-07T23:00:25.577Z,80.07
2019-04-07T23:02:55.824Z,81.13
2019-04-07T23:05:26.068Z,79.70
2019-04-07T23:07:56.404Z,82.17
2019-04-07T23:10:27.403Z,76.00
2019-04-07T23:12:57.856Z,80.53
2019-04-07T23:15:39.562Z,77.67
2019-04-07T23:18:00.113Z,79.07
2019-04-07T23:20:31.164Z,82.43
2019-04-07T23:23:02.647Z,79.93
2019-04-07T23:25:36.572Z,82.50
2019-04-07T23:28:10.398Z,79.90
2019-04-07T23:30:40.902Z,79.83
2019-04-07T23:33:11.186Z,78.90
2019-04-07T23:35:41.839Z,84.23
2019-04-07T23:38:12.102Z,84.30
2019-04-07T23:40:42.401Z,80.77
2019-04-07T23:43:13.212Z,83.10
2019-04-07T23:45:44.170Z,82.80
2019-04-07T23:48:15.796Z,82.23
2019-04-07T23:50:46.553Z,84.23
2019-04-07T23:53:53.679Z,87.60
2019-04-07T23:56:24.133Z,84.43
2019-04-07T23:58:54.493Z,84.57
